Time;durP1;ratioP1;P1;durP2;ratioP2;P2;SDS_P1;SDS_P2;PMS_P1;PMS_P2;Temp;Humidity;BMP_temperature;BMP_pressure;BME280_temperature;BME280_humidity;BME280_pressure;Samples;Min_cycle;Max_cycle;Signal;HPM_P1;HPM_P2
2022/11/09 00:00:55;;;;;;;4.30;3.90;;;13.00;99.90;;;;;;5096058;28;20443;-59
2022/11/09 00:03:22;;;;;;;3.43;3.13;;;13.10;99.90;;;;;;5096060;28;20452;-59
2022/11/09 00:05:56;;;;;;;4.83;3.90;;;13.20;99.90;;;;;;5095905;28;20825;-60
2022/11/09 00:08:23;;;;;;;5.53;3.87;;;13.30;99.90;;;;;;5096001;28;20946;-59
2022/11/09 00:10:51;;;;;;;4.03;3.27;;;13.20;99.90;;;;;;5096223;28;20808;-59
2022/11/09 00:13:18;;;;;;;4.77;4.37;;;13.30;99.90;;;;;;5096161;28;20808;-59
2022/11/09 00:15:46;;;;;;;5.80;3.50;;;13.30;99.90;;;;;;5095924;28;20558;-59
2022/11/09 00:18:13;;;;;;;4.10;3.37;;;13.30;99.90;;;;;;5095873;28;20451;-59
2022/11/09 00:20:40;;;;;;;7.90;3.80;;;13.30;99.90;;;;;;5095778;28;20935;-59
2022/11/09 00:23:07;;;;;;;3.57;3.37;;;13.20;99.90;;;;;;5095933;28;20450;-59
2022/11/09 00:25:34;;;;;;;3.87;3.20;;;13.20;99.90;;;;;;5095679;28;20510;-60
2022/11/09 00:28:03;;;;;;;5.00;3.77;;;13.20;99.90;;;;;;5095640;28;20447;-59
2022/11/09 00:30:30;;;;;;;4.60;3.77;;;13.10;99.90;;;;;;5095489;28;20451;-60
2022/11/09 00:32:58;;;;;;;9.90;3.43;;;13.10;99.90;;;;;;5095709;28;20454;-59
2022/11/09 00:35:25;;;;;;;4.00;3.60;;;13.10;99.90;;;;;;5095688;28;20498;-60
2022/11/09 00:37:52;;;;;;;5.33;3.27;;;13.00;99.90;;;;;;5095507;28;20455;-59
2022/11/09 00:40:20;;;;;;;3.90;3.60;;;13.00;99.90;;;;;;5095641;28;20526;-59
2022/11/09 00:42:47;;;;;;;6.50;3.80;;;12.90;99.90;;;;;;5095512;28;20979;-59
2022/11/09 00:45:15;;;;;;;5.53;3.73;;;12.90;99.90;;;;;;5095209;28;20463;-59
2022/11/09 00:47:42;;;;;;;4.70;3.50;;;12.90;99.90;;;;;;5095456;28;20807;-59
2022/11/09 00:50:10;;;;;;;3.87;3.57;;;12.90;99.90;;;;;;5094864;28;20475;-59
2022/11/09 00:52:37;;;;;;;6.27;4.00;;;12.90;99.90;;;;;;5095374;28;20453;-59
2022/11/09 00:55:05;;;;;;;3.53;3.23;;;12.90;99.90;;;;;;5095167;28;20494;-59
2022/11/09 00:57:32;;;;;;;3.83;3.43;;;12.80;99.90;;;;;;5095060;28;20454;-60
2022/11/09 00:59:59;;;;;;;4.27;3.80;;;12.80;99.90;;;;;;5095223;28;20451;-59
2022/11/09 01:02:28;;;;;;;3.57;3.20;;;12.80;99.90;;;;;;5094868;28;20447;-59
2022/11/09 01:04:55;;;;;;;4.90;3.60;;;12.80;99.90;;;;;;5095199;28;20550;-60
2022/11/09 01:07:22;;;;;;;5.70;3.57;;;12.80;99.90;;;;;;5094773;28;20450;-59
2022/11/09 01:09:49;;;;;;;5.83;3.20;;;12.80;99.90;;;;;;5095240;28;20534;-59
2022/11/09 01:12:16;;;;;;;4.23;3.30;;;12.80;99.90;;;;;;5095032;28;20459;-59
2022/11/09 01:14:44;;;;;;;4.50;3.23;;;12.80;99.90;;;;;;5094900;28;20840;-59
2022/11/09 01:17:11;;;;;;;5.83;3.73;;;12.80;99.90;;;;;;5094580;28;20443;-59
2022/11/09 01:19:39;;;;;;;4.10;3.37;;;12.80;99.90;;;;;;5094945;28;20798;-59
2022/11/09 01:22:06;;;;;;;3.90;3.40;;;12.80;99.90;;;;;;5094623;28;20975;-59
2022/11/09 01:24:33;;;;;;;3.90;3.20;;;12.80;99.90;;;;;;5094695;28;20486;-59
2022/11/09 01:27:00;;;;;;;7.40;3.70;;;12.80;99.90;;;;;;5094666;28;20448;-59
2022/11/09 01:29:28;;;;;;;4.10;3.80;;;12.80;99.90;;;;;;5094782;28;20444;-59
2022/11/09 01:31:55;;;;;;;3.50;3.13;;;12.80;99.90;;;;;;5094695;28;20526;-59
2022/11/09 01:34:22;;;;;;;4.63;3.43;;;12.90;99.90;;;;;;5094429;28;20443;-59
2022/11/09 01:36:52;;;;;;;3.77;3.20;;;12.90;99.90;;;;;;5094276;28;20436;-59
2022/11/09 01:39:19;;;;;;;4.23;3.80;;;12.80;99.90;;;;;;5094203;28;20486;-59
2022/11/09 01:41:47;;;;;;;7.10;3.40;;;12.70;99.90;;;;;;5094241;28;20443;-59
2022/11/09 01:44:17;;;;;;;5.80;3.57;;;12.70;99.90;;;;;;5094446;28;20459;-59
2022/11/09 01:46:49;;;;;;;7.33;3.57;;;12.70;99.90;;;;;;5094368;28;20440;-59
2022/11/09 01:49:22;;;;;;;3.73;3.30;;;12.70;99.90;;;;;;5094002;28;20487;-60
2022/11/09 01:51:58;;;;;;;6.10;3.80;;;12.70;99.90;;;;;;5094347;28;20437;-59
2022/11/09 01:54:28;;;;;;;4.33;3.43;;;12.70;99.90;;;;;;5094199;28;20431;-59
2022/11/09 01:57:05;;;;;;;5.37;3.97;;;12.70;99.90;;;;;;5094291;28;20424;-59
2022/11/09 01:59:36;;;;;;;4.17;3.60;;;12.70;99.90;;;;;;5093876;28;20928;-59
2022/11/09 02:02:05;;;;;;;4.90;3.73;;;12.80;99.90;;;;;;5094103;28;20439;-59
2022/11/09 02:04:36;;;;;;;5.60;3.20;;;12.80;99.90;;;;;;5094171;28;20459;-59
2022/11/09 02:07:05;;;;;;;3.73;3.40;;;12.80;99.90;;;;;;5093840;28;20921;-59
2022/11/09 02:09:39;;;;;;;4.80;3.43;;;12.80;99.90;;;;;;5094117;28;20937;-59
2022/11/09 02:12:07;;;;;;;3.70;3.40;;;12.90;99.90;;;;;;5094066;28;20424;-59
2022/11/09 02:14:36;;;;;;;4.13;3.40;;;12.90;99.90;;;;;;5093523;28;20466;-59
2022/11/09 02:17:04;;;;;;;3.60;3.30;;;12.80;99.90;;;;;;5093830;28;20448;-59
2022/11/09 02:19:31;;;;;;;5.80;3.77;;;12.80;99.90;;;;;;5093981;28;20449;-58
2022/11/09 02:21:59;;;;;;;3.83;2.93;;;12.90;99.90;;;;;;5093737;28;20535;-58
2022/11/09 02:24:27;;;;;;;3.77;3.47;;;12.90;99.90;;;;;;5093605;28;20443;-59
2022/11/09 02:26:55;;;;;;;3.80;2.97;;;12.90;99.90;;;;;;5093590;28;21275;-58
2022/11/09 02:29:26;;;;;;;4.20;3.80;;;12.90;99.90;;;;;;5093828;28;20443;-58
2022/11/09 02:31:56;;;;;;;3.67;3.37;;;12.90;99.90;;;;;;5093929;28;20447;-59
2022/11/09 02:34:25;;;;;;;4.23;3.50;;;12.90;99.90;;;;;;5093341;28;20473;-59
2022/11/09 02:36:52;;;;;;;3.40;3.00;;;13.00;99.90;;;;;;5093725;28;20491;-59
2022/11/09 02:39:23;;;;;;;4.63;3.07;;;13.00;99.90;;;;;;5093379;28;20477;-59
2022/11/09 02:41:53;;;;;;;3.43;3.13;;;13.00;99.90;;;;;;5093648;28;20454;-59
2022/11/09 02:44:21;;;;;;;3.03;2.73;;;13.00;99.90;;;;;;5094060;28;20446;-58
2022/11/09 02:46:48;;;;;;;4.40;2.90;;;13.10;99.90;;;;;;5093724;28;20435;-59
2022/11/09 02:49:15;;;;;;;3.03;2.60;;;13.20;99.90;;;;;;5094493;28;20529;-59
2022/11/09 02:51:42;;;;;;;3.30;3.00;;;13.30;99.90;;;;;;5097468;28;20448;-59
2022/11/09 02:54:09;;;;;;;3.63;3.10;;;13.30;99.90;;;;;;5097673;28;20796;-59
2022/11/09 02:56:38;;;;;;;4.40;3.00;;;13.40;99.90;;;;;;5097767;28;20834;-59
2022/11/09 02:59:05;;;;;;;3.67;3.30;;;13.40;99.90;;;;;;5097363;28;20447;-59
2022/11/09 03:01:32;;;;;;;4.90;3.40;;;13.50;99.90;;;;;;5097173;28;20443;-59
2022/11/09 03:03:59;;;;;;;5.03;3.10;;;13.60;99.90;;;;;;5097405;28;20517;-59
2022/11/09 03:06:33;;;;;;;4.77;3.73;;;13.60;99.90;;;;;;5097408;28;20459;-59
2022/11/09 03:09:01;;;;;;;4.20;3.80;;;13.70;99.90;;;;;;5097103;28;20451;-59
2022/11/09 03:11:28;;;;;;;3.93;3.63;;;13.80;99.90;;;;;;5097349;28;20542;-59
2022/11/09 03:13:57;;;;;;;4.17;3.77;;;13.80;99.90;;;;;;5097114;28;20830;-59
2022/11/09 03:16:24;;;;;;;4.30;3.83;;;13.80;99.90;;;;;;5096815;28;20989;-59
2022/11/09 03:18:52;;;;;;;4.37;3.80;;;13.80;99.90;;;;;;5097211;28;20455;-59
2022/11/09 03:21:20;;;;;;;4.37;3.97;;;13.70;99.90;;;;;;5097402;28;20439;-59
2022/11/09 03:23:52;;;;;;;4.70;4.30;;;13.50;99.90;;;;;;5097042;28;20447;-59
2022/11/09 03:26:20;;;;;;;4.40;4.00;;;13.40;99.90;;;;;;5096981;28;20506;-59
2022/11/09 03:28:47;;;;;;;6.37;3.90;;;13.20;99.90;;;;;;5096922;28;20530;-59
2022/11/09 03:31:16;;;;;;;5.97;4.40;;;13.20;99.90;;;;;;5096987;28;20534;-59
2022/11/09 03:33:43;;;;;;;4.50;4.10;;;13.00;99.90;;;;;;5096608;28;20890;-59
2022/11/09 03:36:10;;;;;;;10.67;4.93;;;13.00;99.90;;;;;;5096884;28;20483;-59
2022/11/09 03:38:37;;;;;;;5.87;4.20;;;13.00;99.90;;;;;;5096688;28;20494;-59
2022/11/09 03:41:05;;;;;;;6.83;4.27;;;12.90;99.90;;;;;;5096838;28;20439;-59
2022/11/09 03:43:32;;;;;;;5.93;3.70;;;12.80;99.90;;;;;;5096517;28;20453;-59
2022/11/09 03:45:59;;;;;;;4.40;4.00;;;12.70;99.90;;;;;;5096325;28;20459;-59
2022/11/09 03:48:27;;;;;;;5.33;4.83;;;12.70;99.90;;;;;;5096438;28;20450;-58
2022/11/09 03:50:54;;;;;;;5.00;4.60;;;12.70;99.90;;;;;;5096729;28;20447;-58
2022/11/09 03:53:21;;;;;;;5.33;4.00;;;12.70;99.90;;;;;;5096685;28;20454;-59
2022/11/09 03:55:48;;;;;;;7.03;5.57;;;12.60;99.90;;;;;;5096385;28;20490;-58
2022/11/09 03:58:15;;;;;;;7.57;4.37;;;12.50;99.90;;;;;;5096175;28;20443;-58
2022/11/09 04:00:42;;;;;;;4.40;4.00;;;12.50;99.90;;;;;;5095994;28;20452;-59
2022/11/09 04:03:09;;;;;;;6.40;4.33;;;12.50;99.90;;;;;;5096441;28;20485;-58
2022/11/09 04:05:38;;;;;;;7.40;4.67;;;12.40;99.90;;;;;;5096292;28;20466;-59
2022/11/09 04:08:05;;;;;;;5.20;4.60;;;12.30;99.90;;;;;;5096182;28;20977;-58
2022/11/09 04:10:32;;;;;;;4.50;4.10;;;12.30;99.90;;;;;;5095920;28;20447;-58
2022/11/09 04:13:00;;;;;;;5.37;4.50;;;12.40;99.90;;;;;;5095752;28;20487;-58
2022/11/09 04:15:27;;;;;;;5.50;5.00;;;12.40;99.90;;;;;;5096056;28;20486;-58
2022/11/09 04:17:58;;;;;;;5.20;4.70;;;12.30;99.90;;;;;;5096076;28;20804;-59
2022/11/09 04:20:26;;;;;;;5.77;4.83;;;12.40;99.90;;;;;;5096197;28;20447;-58
2022/11/09 04:22:59;;;;;;;8.33;4.97;;;12.30;99.90;;;;;;5096087;28;20778;-58
2022/11/09 04:25:29;;;;;;;6.10;5.17;;;12.30;99.90;;;;;;5095697;28;20459;-59
2022/11/09 04:27:56;;;;;;;5.03;4.53;;;12.20;99.90;;;;;;5095879;28;20451;-59
2022/11/09 04:30:26;;;;;;;4.97;4.57;;;12.20;99.90;;;;;;5095820;28;20918;-58
2022/11/09 04:32:53;;;;;;;6.43;4.40;;;12.20;99.90;;;;;;5095883;28;20444;-58
2022/11/09 04:35:20;;;;;;;4.60;4.13;;;12.20;99.90;;;;;;5095663;28;20460;-58
2022/11/09 04:37:54;;;;;;;4.57;4.17;;;12.30;99.90;;;;;;5095766;28;20512;-58
2022/11/09 04:40:22;;;;;;;5.33;4.40;;;12.20;99.90;;;;;;5095510;28;20827;-58
2022/11/09 04:42:50;;;;;;;6.83;5.27;;;12.30;99.90;;;;;;5095478;28;20509;-59
2022/11/09 04:45:17;;;;;;;5.20;4.70;;;12.30;99.90;;;;;;5095135;28;20969;-59
2022/11/09 04:47:44;;;;;;;4.73;4.23;;;12.30;99.90;;;;;;5095615;28;20808;-58
2022/11/09 04:50:11;;;;;;;4.90;4.50;;;12.30;99.90;;;;;;5095200;28;20841;-58
2022/11/09 04:52:39;;;;;;;5.47;4.97;;;12.30;99.90;;;;;;5095378;28;20447;-58
2022/11/09 04:55:07;;;;;;;4.27;3.87;;;12.30;99.90;;;;;;5095002;28;21020;-58
2022/11/09 04:57:35;;;;;;;6.33;4.47;;;12.30;99.90;;;;;;5095034;28;20479;-58
2022/11/09 05:00:03;;;;;;;4.90;4.30;;;12.20;99.90;;;;;;5095156;28;20447;-58
2022/11/09 05:02:30;;;;;;;5.00;4.60;;;12.20;99.90;;;;;;5094905;28;20458;-59
2022/11/09 05:04:57;;;;;;;6.70;6.03;;;12.10;99.90;;;;;;5094913;28;20474;-58
2022/11/09 05:07:24;;;;;;;10.43;5.63;;;12.20;99.90;;;;;;5095124;28;20447;-59
2022/11/09 05:09:51;;;;;;;6.07;5.47;;;12.10;99.90;;;;;;5094645;28;20451;-58
2022/11/09 05:12:18;;;;;;;6.23;5.17;;;;;;;;;;5094152;28;20448;-58
2022/11/09 05:14:47;;;;;;;6.50;5.80;;;12.00;99.90;;;;;;5094563;28;20475;-58
2022/11/09 05:17:14;;;;;;;5.97;5.37;;;12.00;99.90;;;;;;5094690;28;20477;-58
2022/11/09 05:19:41;;;;;;;6.83;6.13;;;12.00;99.90;;;;;;5094934;28;20800;-58
2022/11/09 05:24:53;;;;;;;7.00;6.30;;;12.10;99.90;;;;;;5094544;28;20439;-58
2022/11/09 05:27:20;;;;;;;5.87;5.23;;;12.00;99.90;;;;;;5094662;28;20447;-58
2022/11/09 05:29:48;;;;;;;5.40;4.90;;;12.00;99.90;;;;;;5094743;28;20454;-59
2022/11/09 05:32:15;;;;;;;6.03;5.43;;;12.00;99.90;;;;;;5094332;28;20440;-58
2022/11/09 05:34:42;;;;;;;6.27;5.60;;;12.00;99.90;;;;;;5094498;28;20464;-58
2022/11/09 05:37:09;;;;;;;7.60;5.40;;;12.00;99.90;;;;;;5094579;28;20532;-58
2022/11/09 05:39:37;;;;;;;5.77;5.17;;;12.00;99.90;;;;;;5094175;28;20467;-58
2022/11/09 05:42:04;;;;;;;7.23;5.30;;;12.00;99.90;;;;;;5094414;28;20455;-58
2022/11/09 05:44:31;;;;;;;7.40;6.70;;;12.00;99.90;;;;;;5094107;28;20471;-59
2022/11/09 05:46:59;;;;;;;6.77;5.80;;;12.10;99.90;;;;;;5094453;28;20803;-59
2022/11/09 05:49:26;;;;;;;10.77;6.90;;;12.20;99.90;;;;;;5093781;28;20490;-59
2022/11/09 05:51:53;;;;;;;7.30;6.60;;;12.10;99.90;;;;;;5094457;28;20580;-59
2022/11/09 05:54:20;;;;;;;8.37;6.40;;;12.10;99.90;;;;;;5093958;28;20950;-59
2022/11/09 05:56:47;;;;;;;11.00;7.37;;;12.00;99.90;;;;;;5093681;28;20479;-59
2022/11/09 05:59:15;;;;;;;8.40;7.60;;;12.00;99.90;;;;;;5093898;28;20937;-58
2022/11/09 06:01:42;;;;;;;7.87;7.13;;;12.00;99.90;;;;;;5094176;28;20803;-59
2022/11/09 06:04:10;;;;;;;9.20;6.63;;;11.90;99.90;;;;;;5093866;28;20454;-59
2022/11/09 06:06:37;;;;;;;9.97;6.97;;;11.90;99.90;;;;;;5094161;28;20443;-58
2022/11/09 06:09:04;;;;;;;7.40;6.60;;;11.90;99.90;;;;;;5093994;28;20455;-58
2022/11/09 06:11:31;;;;;;;8.83;7.00;;;11.80;99.90;;;;;;5093507;28;20451;-58
2022/11/09 06:13:58;;;;;;;10.20;7.57;;;11.70;99.90;;;;;;5093295;28;20454;-59
2022/11/09 06:16:26;;;;;;;8.20;7.20;;;11.80;99.90;;;;;;5093478;28;20511;-58
2022/11/09 06:18:53;;;;;;;7.30;6.60;;;11.70;99.90;;;;;;5093483;28;20547;-59
2022/11/09 06:21:22;;;;;;;7.53;6.83;;;11.70;99.90;;;;;;5093357;28;20922;-58
2022/11/09 06:23:49;;;;;;;11.37;7.40;;;11.70;99.90;;;;;;5092922;28;20447;-59
2022/11/09 06:26:16;;;;;;;6.57;5.93;;;11.80;99.90;;;;;;5093066;28;20470;-59
2022/11/09 06:28:43;;;;;;;9.13;8.23;;;11.80;99.90;;;;;;5093216;28;21003;-59
2022/11/09 06:31:15;;;;;;;6.23;5.63;;;11.90;99.90;;;;;;5093183;28;20521;-59
2022/11/09 06:33:43;;;;;;;6.83;5.27;;;12.00;99.90;;;;;;5093225;28;20434;-58
2022/11/09 06:36:11;;;;;;;6.00;5.40;;;12.00;99.90;;;;;;5092812;28;20487;-58
2022/11/09 06:38:39;;;;;;;5.60;5.10;;;12.10;99.90;;;;;;5092974;28;20459;-58
2022/11/09 06:41:07;;;;;;;7.40;4.70;;;12.10;99.90;;;;;;5092966;28;20443;-59
2022/11/09 06:43:34;;;;;;;6.03;4.27;;;12.10;99.90;;;;;;5093049;28;20470;-59
2022/11/09 06:46:03;;;;;;;6.97;5.50;;;12.10;99.90;;;;;;5093191;28;20557;-58
2022/11/09 06:48:30;;;;;;;5.40;4.90;;;12.10;99.90;;;;;;5092812;28;20451;-59
2022/11/09 06:51:00;;;;;;;6.30;5.00;;;12.20;99.90;;;;;;5093179;28;20502;-59
2022/11/09 06:53:29;;;;;;;5.17;4.00;;;12.20;99.90;;;;;;5092947;28;20462;-59
2022/11/09 06:55:59;;;;;;;5.10;4.60;;;12.20;99.90;;;;;;5092441;28;20471;-58
2022/11/09 06:58:27;;;;;;;5.50;5.00;;;12.20;99.90;;;;;;5093214;28;20436;-59
2022/11/09 07:00:55;;;;;;;5.10;4.60;;;12.20;99.90;;;;;;5092699;28;20443;-59
2022/11/09 07:03:23;;;;;;;4.97;4.53;;;12.20;99.90;;;;;;5092896;28;20549;-59
2022/11/09 07:05:52;;;;;;;5.20;4.53;;;12.30;99.90;;;;;;5093055;28;20499;-58
2022/11/09 07:08:19;;;;;;;6.33;5.47;;;12.30;99.90;;;;;;5093002;28;20451;-58
2022/11/09 07:10:47;;;;;;;6.00;5.50;;;12.30;99.90;;;;;;5092822;28;20534;-59
2022/11/09 07:13:15;;;;;;;7.10;5.43;;;12.40;99.90;;;;;;5093106;28;20451;-59
2022/11/09 07:15:43;;;;;;;7.20;4.93;;;12.50;99.90;;;;;;5092552;28;20495;-58
2022/11/09 07:18:12;;;;;;;4.87;4.33;;;12.40;99.90;;;;;;5092457;28;20883;-59
2022/11/09 07:20:39;;;;;;;7.40;4.77;;;12.40;99.90;;;;;;5092848;28;20458;-59
2022/11/09 07:23:06;;;;;;;5.50;5.00;;;12.30;99.90;;;;;;5092450;28;20535;-59
2022/11/09 07:25:33;;;;;;;6.63;5.50;;;12.20;99.90;;;;;;5092698;28;20467;-59
2022/11/09 07:28:06;;;;;;;6.40;5.10;;;12.10;99.90;;;;;;5092840;28;20991;-60
2022/11/09 07:30:35;;;;;;;10.27;7.10;;;12.10;99.90;;;;;;5092892;28;20524;-58
2022/11/09 07:33:03;;;;;;;6.93;6.27;;;12.10;99.90;;;;;;5092886;28;20452;-58
2022/11/09 07:35:30;;;;;;;6.00;5.40;;;12.10;99.90;;;;;;5094005;28;20481;-60
2022/11/09 07:38:00;;;;;;;6.50;5.80;;;12.20;99.90;;;;;;5096535;28;20481;-59
2022/11/09 07:40:28;;;;;;;6.03;5.37;;;12.10;99.90;;;;;;5096548;28;20492;-59
2022/11/09 07:42:58;;;;;;;6.60;5.53;;;12.10;99.90;;;;;;5096385;28;20497;-58
2022/11/09 07:45:26;;;;;;;6.77;5.50;;;12.30;99.90;;;;;;5096018;28;20977;-59
2022/11/09 07:47:57;;;;;;;5.87;5.23;;;12.30;99.90;;;;;;5096330;28;20470;-59
2022/11/09 07:50:24;;;;;;;9.27;4.83;;;12.30;99.90;;;;;;5095950;28;20553;-59
2022/11/09 07:52:51;;;;;;;8.00;6.33;;;12.30;99.90;;;;;;5095957;28;20447;-59
2022/11/09 07:55:18;;;;;;;11.63;7.47;;;12.30;99.90;;;;;;5096097;28;20536;-58
2022/11/09 07:57:46;;;;;;;5.77;5.33;;;12.40;99.90;;;;;;5095489;28;20548;-58
2022/11/09 08:00:14;;;;;;;6.40;5.83;;;12.50;99.90;;;;;;5095899;28;20550;-58
2022/11/09 08:02:42;;;;;;;6.63;5.90;;;12.50;99.90;;;;;;5095758;28;20938;-59
2022/11/09 08:05:11;;;;;;;10.23;8.53;;;12.50;99.90;;;;;;5095879;28;20456;-59
2022/11/09 08:07:38;;;;;;;8.10;7.27;;;12.50;99.90;;;;;;5095287;28;20447;-59
2022/11/09 08:10:06;;;;;;;16.20;11.73;;;12.60;99.90;;;;;;5095876;28;20556;-59
2022/11/09 08:12:34;;;;;;;8.80;6.50;;;12.60;99.90;;;;;;5095631;28;20448;-58
2022/11/09 08:15:01;;;;;;;7.83;6.30;;;;;;;;;;5095415;28;20823;-59
2022/11/09 08:17:28;;;;;;;14.03;8.70;;;12.70;99.90;;;;;;5095771;28;20483;-58
2022/11/09 08:19:55;;;;;;;12.73;6.10;;;12.70;99.90;;;;;;5095568;28;20539;-59
2022/11/09 08:22:24;;;;;;;7.10;6.10;;;12.60;99.90;;;;;;5095169;28;20443;-59
2022/11/09 08:24:51;;;;;;;7.10;4.60;;;12.70;99.90;;;;;;5095525;28;20546;-59
2022/11/09 08:27:18;;;;;;;4.47;4.07;;;12.70;99.90;;;;;;5095499;28;20441;-59
2022/11/09 08:29:45;;;;;;;4.93;4.23;;;12.90;99.90;;;;;;5095452;28;20452;-58
2022/11/09 08:32:13;;;;;;;6.13;4.40;;;12.90;99.90;;;;;;5095204;28;20486;-58
2022/11/09 08:34:40;;;;;;;4.90;4.50;;;12.90;99.90;;;;;;5094929;28;20546;-59
2022/11/09 08:37:07;;;;;;;6.73;5.67;;;12.80;99.90;;;;;;5094994;28;20501;-59
2022/11/09 08:39:35;;;;;;;8.57;5.77;;;12.90;99.90;;;;;;5095174;28;20541;-59
2022/11/09 08:42:03;;;;;;;6.43;4.50;;;12.90;99.90;;;;;;5094940;28;20535;-59
2022/11/09 08:44:30;;;;;;;5.77;4.50;;;12.90;99.90;;;;;;5094373;28;20510;-59
2022/11/09 08:46:57;;;;;;;3.70;3.40;;;12.90;99.90;;;;;;5094632;28;20475;-59
2022/11/09 08:49:24;;;;;;;5.60;3.90;;;13.00;99.90;;;;;;5094641;28;20475;-59
2022/11/09 08:51:51;;;;;;;4.93;3.60;;;12.90;99.90;;;;;;5094712;28;20521;-60
2022/11/09 08:54:22;;;;;;;4.40;4.10;;;12.90;99.90;;;;;;5094912;28;20443;-59
2022/11/09 08:56:51;;;;;;;5.60;4.33;;;13.00;99.90;;;;;;5094711;28;20479;-59
2022/11/09 08:59:18;;;;;;;4.70;4.20;;;13.00;99.90;;;;;;5094774;28;20451;-59
2022/11/09 09:01:45;;;;;;;4.33;3.93;;;13.10;99.90;;;;;;5094629;28;20531;-59
2022/11/09 09:04:12;;;;;;;4.33;3.60;;;13.10;99.90;;;;;;5094687;28;20545;-59
2022/11/09 09:06:39;;;;;;;4.30;3.33;;;13.20;99.90;;;;;;5094667;28;20538;-60
2022/11/09 09:09:06;;;;;;;3.80;3.50;;;13.20;99.90;;;;;;5094396;28;20989;-59
2022/11/09 09:11:34;;;;;;;4.00;3.50;;;13.30;99.90;;;;;;5094717;28;20843;-59
2022/11/09 09:14:02;;;;;;;5.13;4.27;;;13.30;99.90;;;;;;5094035;28;20825;-58
2022/11/09 09:16:29;;;;;;;4.37;3.17;;;13.30;99.90;;;;;;5094360;28;20546;-59
2022/11/09 09:18:57;;;;;;;3.60;3.30;;;13.30;99.90;;;;;;5094459;28;20447;-59
2022/11/09 09:21:24;;;;;;;4.30;3.97;;;13.40;99.90;;;;;;5094594;28;20893;-59
2022/11/09 09:23:51;;;;;;;6.97;3.47;;;13.40;99.90;;;;;;5094320;28;20450;-59
2022/11/09 09:26:18;;;;;;;3.77;3.00;;;13.30;99.90;;;;;;5094433;28;20471;-59
2022/11/09 09:28:46;;;;;;;3.40;2.93;;;13.30;99.90;;;;;;5094222;28;20922;-59
2022/11/09 09:31:14;;;;;;;3.13;2.87;;;13.40;99.90;;;;;;5094179;28;20482;-58
2022/11/09 09:33:41;;;;;;;3.10;2.80;;;13.40;99.90;;;;;;5093879;28;21009;-59
2022/11/09 09:36:15;;;;;;;3.40;2.60;;;13.40;99.90;;;;;;5093733;28;20558;-59
2022/11/09 09:38:43;;;;;;;3.07;2.80;;;13.50;99.90;;;;;;5093958;28;20523;-59
2022/11/09 09:41:18;;;;;;;1.93;1.83;;;13.50;99.90;;;;;;5093818;28;20534;-59
2022/11/09 09:43:49;;;;;;;2.70;2.20;;;13.50;99.90;;;;;;5094113;28;20462;-61
2022/11/09 09:46:24;;;;;;;2.43;2.20;;;13.50;99.90;;;;;;5094028;28;20463;-59
2022/11/09 09:48:56;;;;;;;2.13;1.97;;;13.60;99.90;;;;;;5093806;28;21066;-59
2022/11/09 09:51:30;;;;;;;2.87;2.43;;;13.60;99.90;;;;;;5093663;28;20435;-59
2022/11/09 09:54:03;;;;;;;3.00;2.23;;;13.70;99.90;;;;;;5093551;28;20872;-59
2022/11/09 09:56:34;;;;;;;1.90;1.80;;;13.60;99.90;;;;;;5093552;28;20542;-59
2022/11/09 09:59:10;;;;;;;2.33;1.60;;;13.70;99.90;;;;;;5093367;28;20463;-59
2022/11/09 10:01:42;;;;;;;2.73;1.87;;;13.70;99.90;;;;;;5093464;28;20438;-59
2022/11/09 10:04:17;;;;;;;2.40;1.63;;;13.90;99.90;;;;;;5093650;28;20767;-58
2022/11/09 10:06:59;;;;;;;2.97;2.67;;;13.90;99.90;;;;;;5093155;28;20431;-58
2022/11/09 10:09:37;;;;;;;2.47;2.27;;;13.80;99.90;;;;;;5093272;28;20451;-57
2022/11/09 10:12:11;;;;;;;2.17;1.97;;;13.70;99.90;;;;;;5093215;28;20423;-58
2022/11/09 10:15:01;;;;;;;3.27;2.40;;;13.70;99.90;;;;;;5093254;28;20553;-60
2022/11/09 10:17:38;;;;;;;3.40;2.30;;;13.90;99.90;;;;;;5092806;28;20566;-59
2022/11/09 10:20:30;;;;;;;2.53;2.20;;;13.90;99.90;;;;;;5092857;28;20431;-59
2022/11/09 10:23:11;;;;;;;2.93;2.47;;;14.00;99.90;;;;;;5083290;28;20475;-60
2022/11/09 10:25:39;;;;;;;2.77;2.57;;;14.00;99.90;;;;;;5093134;28;20506;-59
2022/11/09 10:28:11;;;;;;;3.27;2.97;;;14.10;99.90;;;;;;5092624;28;20443;-59
2022/11/09 10:30:39;;;;;;;3.03;2.80;;;14.10;99.90;;;;;;5092905;28;20438;-60
2022/11/09 10:33:15;;;;;;;2.90;2.60;;;14.10;99.90;;;;;;5093430;28;20457;-59
2022/11/09 10:35:48;;;;;;;3.17;2.77;;;14.30;99.90;;;;;;5093110;28;20508;-59
2022/11/09 10:38:21;;;;;;;2.43;2.23;;;14.50;99.90;;;;;;5093076;28;20493;-60
2022/11/09 10:40:57;;;;;;;3.30;2.90;;;14.90;99.90;;;;;;5093401;28;20514;-60
2022/11/09 10:43:24;;;;;;;5.73;2.87;;;15.30;99.90;;;;;;5093441;28;20423;-61
2022/11/09 10:46:03;;;;;;;3.27;2.50;;;15.40;99.90;;;;;;5092920;28;20502;-60
2022/11/09 10:48:34;;;;;;;3.40;2.53;;;15.50;99.90;;;;;;5093011;28;20512;-59
2022/11/09 10:51:01;;;;;;;3.00;2.60;;;15.40;99.90;;;;;;5093006;28;20515;-58
2022/11/09 10:53:30;;;;;;;2.37;2.10;;;15.60;99.90;;;;;;5092894;28;20443;-60
2022/11/09 10:56:04;;;;;;;2.97;2.43;;;15.50;99.90;;;;;;5093003;28;20510;-60
2022/11/09 10:58:35;;;;;;;3.00;2.70;;;15.50;99.90;;;;;;5093039;28;20470;-60
2022/11/09 11:01:05;;;;;;;3.33;2.40;;;15.30;99.90;;;;;;5093012;28;20451;-60
2022/11/09 11:03:37;;;;;;;2.53;2.33;;;15.20;99.90;;;;;;5093129;28;20432;-60
2022/11/09 11:06:06;;;;;;;3.63;3.07;;;15.30;99.90;;;;;;5092967;28;20466;-60
2022/11/09 11:08:38;;;;;;;4.30;2.70;;;15.30;99.90;;;;;;5092967;28;20452;-59
2022/11/09 11:11:24;;;;;;;3.90;3.13;;;15.20;99.90;;;;;;5095449;28;20473;-59
2022/11/09 11:14:13;;;;;;;3.27;3.03;;;15.20;99.90;;;;;;5096576;28;20437;-60
2022/11/09 11:16:41;;;;;;;5.37;3.13;;;15.10;99.90;;;;;;5097111;28;20428;-59
2022/11/09 11:19:32;;;;;;;3.20;2.90;;;15.10;99.90;;;;;;5096717;28;20540;-60
2022/11/09 11:22:21;;;;;;;2.63;2.43;;;15.30;99.90;;;;;;5096375;28;20460;-60
2022/11/09 11:24:54;;;;;;;5.10;2.90;;;15.40;99.90;;;;;;5096609;28;20463;-60
2022/11/09 11:27:27;;;;;;;2.83;2.63;;;15.50;99.90;;;;;;5096804;28;20427;-59
2022/11/09 11:29:59;;;;;;;3.90;2.67;;;15.50;99.90;;;;;;5096522;28;20434;-60
2022/11/09 11:32:26;;;;;;;4.30;3.10;;;15.40;99.90;;;;;;5096674;28;20511;-60
2022/11/09 11:34:55;;;;;;;4.00;2.40;;;15.50;99.90;;;;;;5096175;28;20471;-60
2022/11/09 11:37:34;;;;;;;4.30;3.10;;;15.50;99.90;;;;;;5096284;28;20945;-60
2022/11/09 11:40:04;;;;;;;3.63;3.33;;;15.40;99.90;;;;;;5096379;28;20510;-60
2022/11/09 11:42:58;;;;;;;6.23;3.03;;;15.40;99.90;;;;;;5096105;28;20443;-60
2022/11/09 11:45:32;;;;;;;3.80;2.80;;;15.40;99.90;;;;;;5095916;28;20467;-60
2022/11/09 11:48:34;;;;;;;5.80;3.30;;;15.50;99.90;;;;;;5096042;28;20432;-60
2022/11/09 11:51:09;;;;;;;4.30;3.27;;;15.40;99.90;;;;;;5095960;28;20446;-62
2022/11/09 11:53:49;;;;;;;3.47;3.17;;;15.40;99.90;;;;;;5096061;28;20880;-60
2022/11/09 11:56:26;;;;;;;7.70;4.33;;;15.40;99.90;;;;;;5095111;28;20463;-59
2022/11/09 11:59:24;;;;;;;5.07;3.37;;;15.40;99.90;;;;;;5094855;28;20558;-60
2022/11/09 12:02:23;;;;;;;2.97;2.67;;;15.40;99.90;;;;;;5069840;28;20446;-60
2022/11/09 12:05:23;;;;;;;3.40;2.70;;;15.50;99.90;;;;;;5096067;28;20459;-60
2022/11/09 12:07:58;;;;;;;4.43;3.27;;;15.50;99.90;;;;;;5095406;28;20515;-60
2022/11/09 12:10:37;;;;;;;4.33;2.70;;;15.40;99.90;;;;;;5095032;28;20480;-59
2022/11/09 12:13:14;;;;;;;2.77;2.57;;;15.40;99.90;;;;;;5094868;28;20518;-59
2022/11/09 12:15:52;;;;;;;3.23;2.73;;;15.40;99.90;;;;;;5095178;28;20487;-59
2022/11/09 12:18:34;;;;;;;3.17;2.60;;;15.40;99.90;;;;;;5095002;28;20467;-59
2022/11/09 12:21:13;;;;;;;3.00;2.70;;;15.50;99.90;;;;;;5094209;28;20435;-60
2022/11/09 12:23:58;;;;;;;7.10;4.63;;;15.50;99.90;;;;;;5094999;28;20443;-60
2022/11/09 12:26:39;;;;;;;2.63;2.43;;;15.50;99.90;;;;;;5094235;28;20463;-59
2022/11/09 12:29:17;;;;;;;5.50;2.97;;;15.50;99.90;;;;;;5094560;28;20424;-59
2022/11/09 12:31:58;;;;;;;4.03;3.10;;;15.50;99.90;;;;;;5094757;28;20506;-59
2022/11/09 12:34:30;;;;;;;4.43;2.77;;;15.50;99.90;;;;;;5095253;28;20481;-59
2022/11/09 12:37:01;;;;;;;3.23;2.53;;;15.50;99.90;;;;;;5095183;28;20424;-59
2022/11/09 12:39:35;;;;;;;3.67;3.10;;;15.50;99.90;;;;;;5095140;28;20990;-59
2022/11/09 12:42:06;;;;;;;2.97;2.27;;;15.40;99.90;;;;;;5094904;28;20983;-59
2022/11/09 12:44:39;;;;;;;2.77;2.37;;;15.40;99.90;;;;;;5094484;28;20902;-59
2022/11/09 12:47:14;;;;;;;7.50;2.57;;;15.60;99.90;;;;;;5094861;28;20849;-59
2022/11/09 12:49:44;;;;;;;2.80;2.60;;;15.60;99.90;;;;;;5094896;28;20576;-59
2022/11/09 12:52:14;;;;;;;2.80;2.60;;;15.60;99.90;;;;;;5094750;28;20454;-59
2022/11/09 12:54:47;;;;;;;5.77;3.13;;;15.60;99.90;;;;;;5094864;28;20507;-59
2022/11/09 12:57:21;;;;;;;2.40;2.20;;;15.60;99.90;;;;;;5094910;28;20435;-58
2022/11/09 12:59:50;;;;;;;3.50;2.47;;;15.70;99.90;;;;;;5094854;28;20968;-59
2022/11/09 13:02:30;;;;;;;2.93;2.73;;;15.70;99.90;;;;;;5094516;28;20508;-59
2022/11/09 13:04:59;;;;;;;2.47;2.27;;;15.90;99.90;;;;;;5094427;28;20477;-59